• Join FlightAware (Why Join?)
  • Login
  • US Flag 
06:09PM EST


 

Airport Tracker/Info


-or-


 

Live Flight TrackerFlight Track Log ✈ GJS3618 ✈ 01-May-2013 ✈ KDEN - KGRR

Flight Track Log - Related Links

Times and Time Zones

All times are in EDT time to prevent confusion due to time zone crossing. See the GJS3618 flight status page for this flight to view local times or setup timezone preferences in your user account.

Time Position Orientation Groundspeed Altitude Reporting Facility
EDT Latitude Longitude Course Direction KTS MPH feet Rate Location/Type
08:41PM 39.9000 -104.7000 North 154 177 7,300  Level Denver TRACON
08:42PM 39.9500 -104.6833 14° North 214 246 9,700 2,400 Climbing Denver TRACON
08:43PM 40.0167 -104.6167 37° Northeast 270 311 12,100 1,920 Climbing Denver TRACON
08:46PM 40.1944 -104.4894 29° Northeast 352 405 16,100 1,560 Climbing Denver Center
08:47PM 40.2551 -104.5000 North  Level FlightAware Approximate
08:47PM 40.2861 -104.4278 27° Northeast 370 426 17,500  Level Denver Center
08:48PM 40.3947 -104.3567 26° Northeast 406 467 18,400 1,080 Climbing Denver Center
08:49PM 40.4989 -104.2861 27° Northeast 424 488 19,800 1,200 Climbing Denver Center
08:50PM 40.6036 -104.2003 32° Northeast 440 506 20,900 1,020 Climbing Denver Center
08:51PM 40.7061 -104.0725 43° Northeast 469 540 22,000 1,020 Climbing Denver Center
08:52PM 40.7992 -103.9519 44° Northeast 474 545 23,100 1,140 Climbing Denver Center
08:53PM 40.8994 -103.8233 44° Northeast 496 571 24,400 1,260 Climbing Denver Center
08:54PM 40.9958 -103.6989 44° Northeast 499 574 25,700 1,260 Climbing Denver Center
08:55PM 41.1075 -103.5517 45° Northeast 506 582 27,100 1,260 Climbing Denver Center
08:56PM 41.2042 -103.4264 44° Northeast 510 587 28,400 1,260 Climbing Denver Center
08:57PM 41.3156 -103.2817 44° Northeast 503 579 29,800 1,020 Climbing Denver Center
08:58PM 41.4014 -103.1433 50° Northeast 509 586 30,500 720 Climbing Denver Center
08:59PM 41.4375 -102.9458 76° East 495 570 31,300 720 Climbing Denver Center
09:00PM 41.4644 -102.7722 78° East 501 577 32,000 720 Climbing Denver Center
09:01PM 41.4958 -102.5742 78° East 512 589 32,800 660 Climbing Denver Center
09:02PM 41.5244 -102.3956 78° East 515 593 33,400 660 Climbing Denver Center
09:03PM 41.5564 -102.1856 78° East 516 594 34,200 720 Climbing Denver Center
09:04PM 41.5861 -102.0033 78° East 522 601 34,900 660 Climbing Denver Center
09:05PM 41.6128 -101.8231 79° East 518 596 35,600 720 Climbing Denver Center
09:06PM 41.6447 -101.6117 79° East 518 596 36,400 660 Climbing Denver Center
09:07PM 41.6717 -101.4317 79° East 516 594 37,000 540 Climbing Denver Center
09:08PM 41.7036 -101.2186 79° East 519 597 37,600 480 Climbing Denver Center
09:09PM 41.7297 -101.0372 79° East 517 595 38,100 480 Climbing Denver Center
09:10PM 41.7550 -100.8567 79° East 515 593 38,600 360 Climbing Denver Center
09:12PM 41.7850 -100.6461 79° East 513 590 39,000 120 Climbing Denver Center
09:13PM 41.8186 -100.4022 79° East 521 600 39,000  Level Denver Center
09:14PM 41.8447 -100.2175 79° East 525 604 39,000  Level Denver Center
09:15PM 41.8708 -100.0319 79° East 528 608 39,000  Level Denver Center
09:16PM 41.8983 -99.8158 80° East 526 605 39,000  Level Denver Center
09:17PM 41.9247 -99.6222 80° East 524 603 39,000  Level Denver Center
09:18PM 41.9503 -99.4289 80° East 524 603 39,100  Climbing Denver Center
09:19PM 41.9744 -99.2344 80° East 525 604 39,000 -60 Descending Denver Center
09:20PM 41.9989 -99.0456 80° East 514 592 39,000  Level Denver Center
09:20PM 42.0089 -98.9708 80° East 514 592 39,000  Level Minneapolis Center
09:21PM 42.0322 -98.7831 80° East 508 585 39,000  Level Minneapolis Center
09:22PM 42.0556 -98.5969 80° East 504 580 39,000  Level Minneapolis Center
09:23PM 42.0775 -98.4125 81° East 500 575 39,000  Level Minneapolis Center
09:24PM 42.0989 -98.2300 81° East 494 568 39,000  Level Minneapolis Center
09:25PM 42.1208 -98.0478 81° East 492 566 39,000  Level Minneapolis Center
09:26PM 42.1394 -97.8614 82° East 496 571 39,000  Level Minneapolis Center
09:27PM 42.1639 -97.6567 81° East 492 566 39,000  Level Minneapolis Center
09:28PM 42.1858 -97.4731 81° East 495 570 39,000  Level Minneapolis Center
09:30PM 42.2106 -97.2542 81° East 492 566 39,000  Level Minneapolis Center
09:31PM 42.2292 -97.0714 82° East 492 566 39,000  Level Minneapolis Center
09:32PM 42.2492 -96.8889 82° East 490 564 39,000  Level Minneapolis Center
09:33PM 42.2683 -96.7081 82° East 488 562 39,000  Level Minneapolis Center
09:34PM 42.2869 -96.5275 82° East 485 558 39,000  Level Minneapolis Center
09:35PM 42.3058 -96.3456 82° East 487 560 39,000  Level Minneapolis Center
09:36PM 42.3269 -96.1264 83° East 488 562 39,000  Level Minneapolis Center
09:37PM 42.3453 -95.9425 82° East 490 564 39,000  Level Minneapolis Center
09:38PM 42.3622 -95.7603 83° East 489 563 39,000  Level Minneapolis Center
09:39PM 42.3794 -95.5756 83° East 494 568 39,000  Level Minneapolis Center
09:40PM 42.3967 -95.3922 83° East 491 565 39,000  Level Minneapolis Center
09:41PM 42.4136 -95.2092 83° East 489 563 39,000  Level Minneapolis Center
09:42PM 42.4303 -95.0281 83° East 487 560 39,000  Level Minneapolis Center
09:43PM 42.4467 -94.8444 83° East 488 562 39,000  Level Minneapolis Center
09:44PM 42.4592 -94.6967 83° East 492 566 39,000  Level Minneapolis Center
09:45PM 42.4794 -94.4425 84° East 496 571 39,000  Level Minneapolis Center
09:46PM 42.4953 -94.2603 83° East 494 568 39,000  Level Minneapolis Center
09:47PM 42.5108 -94.0783 83° East 492 566 39,000  Level Minneapolis Center
09:48PM 42.5247 -93.8961 84° East 492 566 39,000  Level Minneapolis Center
09:49PM 42.5389 -93.7164 84° East 486 559 39,000  Level Minneapolis Center
09:50PM 42.5525 -93.5353 84° East 487 560 39,000  Level Minneapolis Center
09:51PM 42.5661 -93.3553 84° East 486 559 39,000  Level Minneapolis Center
09:52PM 42.5822 -93.1389 84° East 486 559 39,100  Climbing Minneapolis Center
09:53PM 42.5936 -92.9950 84° East 484 557 39,000 -60 Descending Minneapolis Center
09:54PM 42.6086 -92.7808 84° East 480 552 39,000  Level Minneapolis Center
09:55PM 42.6200 -92.6025 85° East 480 552 39,000  Level Minneapolis Center
09:56PM 42.6331 -92.4256 84° East 477 549 39,000  Level Minneapolis Center
09:57PM 42.6439 -92.2489 85° East 476 548 39,000  Level Minneapolis Center
09:58PM 42.6550 -92.0722 85° East 476 548 39,000  Level Minneapolis Center
09:59PM 42.6681 -91.8594 85° East 476 548 39,000  Level Minneapolis Center
10:00PM 42.6781 -91.6850 85° East 477 549 39,000  Level Minneapolis Center
10:01PM 42.6889 -91.5153 85° East 477 549 39,000  Level Minneapolis Center
10:02PM 42.6997 -91.3389 85° East 477 549 39,000  Level Chicago Center
10:03PM 42.7089 -91.1617 86° East 478 550 39,000  Level Chicago Center
10:04PM 42.7178 -90.9864 86° East 472 543 39,000  Level Chicago Center
10:05PM 42.7281 -90.8086 85° East 476 548 39,000  Level Chicago Center
10:06PM 42.7378 -90.6333 86° East 472 543 39,000  Level Chicago Center
10:07PM 42.7453 -90.4589 87° East 469 540 39,000  Level Chicago Center
10:08PM 42.7553 -90.2486 86° East 467 537 39,000  Level Chicago Center
10:09PM 42.7628 -90.0750 87° East 465 535 39,000  Level Chicago Center
10:10PM 42.7697 -89.9114 87° East 468 539 39,000  Level Chicago Center
10:11PM 42.7778 -89.7061 87° East 466 536 39,000  Level Chicago Center
10:12PM 42.7861 -89.5292 86° East 469 540 39,000  Level Chicago Center
10:13PM 42.7939 -89.3533 86° East 469 540 39,000  Level Chicago Center
10:15PM 42.7989 -89.1590 88° East  Level FlightAware Approximate
10:15PM 42.8067 -89.0017 88° East 465 535 39,000  Level Chicago Center
10:16PM 42.8136 -88.8242 87° East 469 540 38,100 -900 Descending Chicago Center
10:17PM 42.8186 -88.6506 88° East 464 534 37,200 -1,080 Descending Chicago Center
10:18PM 42.8242 -88.4806 87° East 454 522 36,000 -1,500 Descending Chicago Center
10:19PM 42.8297 -88.2747 88° East 465 535 34,200 -1,620 Descending Chicago Center
10:21PM 42.8361 -88.0956 87° East 474 545 32,700 -1,500 Descending Chicago Center
10:22PM 42.8411 -87.9169 88° East 474 545 31,200 -1,500 Descending Chicago Center
10:23PM 42.8458 -87.7392 88° East 472 543 29,700 -1,500 Descending Chicago Center
10:24PM 42.8500 -87.5653 88° East 463 533 28,200 -1,980 Descending Chicago Center
10:25PM 42.8542 -87.3983 88° East 446 513 25,700 -2,460 Descending Chicago Center
10:26PM 42.8561 -87.2436 89° East 437 503 23,200 -2,760 Descending Chicago Center
10:27PM 42.8597 -87.0450 89° East 439 505 20,100 -2,700 Descending Chicago Center
10:28PM 42.8647 -86.8825 88° East 431 496 17,700 -2,460 Descending Chicago Center
10:29PM 42.8667 -86.7292 89° East 413 475 15,100 -2,520 Descending Chicago Center
10:30PM 42.8692 -86.5803 89° East 397 457 12,600 -1,920 Descending Chicago Center
10:31PM 42.8708 -86.4372 89° East 383 441 11,200 -1,020 Descending Chicago Center
10:32PM 42.8736 -86.3133 88° East 322 371 10,600 -840 Descending Chicago Center
10:33PM 42.8742 -86.2067 90° East 287 330 9,500 -1,560 Descending Chicago Center
10:34PM 42.8756 -86.1028 89° East 278 320 7,500 -1,320 Descending Chicago Center
10:35PM 42.8758 -85.9889 90° East 253 291 6,900 -900 Descending Chicago Center
10:36PM 42.8775 -85.9092 88° East 220 253 5,700 -1,020 Descending Chicago Center
10:37PM 42.8781 -85.8392 89° East 194 223 4,900 -780 Descending Chicago Center
10:38PM 42.8703 -85.7669 98° East 193 222 4,200 -840 Descending Chicago Center
10:39PM 42.8625 -85.6947 98° East 193 222 3,300 -1,080 Descending Chicago Center
10:40PM 42.8669 -85.6233 85° East 191 220 2,100 -1,020 Descending Chicago Center
10:41PM 42.8733 -85.5644 82° East 176 203 1,300 -540 Descending Chicago Center
10:42PM 42.8817 -85.5097 78° East 157 181 1,000 -300 Descending Chicago Center
10:44PM 42.8667 -85.5167 270° West  Level FlightAware Approximate